Terminal Aerodrome Forecast
Issued by NWS Los Angeles, CA

Home | Current Version | Previous Version | Text Only | Print | Product List | Glossary On
Versions: 1 2 3 4 5 6 7 8 9 10 11 12 13 14 15 16 17 18 19 20 21 22 23 24 25 26 27 28 29 30 31 32
402
FTUS46 KLOX 272336
TAFSMX
TAF
KSMX 272336Z 2800/2824 31017KT P6SM SKC
     FM280200 30008KT P6SM SKC
     FM280600 VRB03KT P6SM BKN008
     FM280900 VRB03KT 2SM BR OVC004
     FM281500 VRB03KT 4SM BR BKN006
     FM281630 VRB03KT P6SM SKC
     FM281900 31012KT P6SM SKC
     FM282100 32015G22KT P6SM SKC=

USA.gov is the U.S. government's official web portal to all federal, state and local government web resources and services.